Time;durP1;ratioP1;P1;durP2;ratioP2;P2;SDS_P1;SDS_P2;PMS_P1;PMS_P2;Temp;Humidity;BMP_temperature;BMP_pressure;BME280_temperature;BME280_humidity;BME280_pressure;Samples;Min_cycle;Max_cycle;Signal;HPM_P1;HPM_P2
2023/03/01 00:01:29;;;;;;;5.03;4.10;;;;;;;-0.55;78.30;103146.19;5130902;27;20427;-35
2023/03/01 00:03:55;;;;;;;7.25;4.07;;;;;;;-0.53;78.53;103146.97;5131211;27;20348;-35
2023/03/01 00:06:22;;;;;;;5.65;3.97;;;;;;;-0.52;78.33;103148.66;5131217;27;20024;-35
2023/03/01 00:08:47;;;;;;;;;;;;;;;-0.50;78.01;103141.41;5131017;27;20370;-35
2023/03/01 00:11:14;;;;;;;6.03;4.13;;;;;;;-0.54;79.07;103147.91;5131627;27;19908;-35
2023/03/01 00:13:41;;;;;;;6.03;4.10;;;;;;;-0.64;79.02;103128.19;5120296;27;20034;-35
2023/03/01 00:16:13;;;;;;;5.82;3.92;;;;;;;-0.64;78.27;103136.16;5117299;28;20069;-35
2023/03/01 00:18:39;;;;;;;5.00;3.90;;;;;;;-0.61;78.63;103130.66;5116968;28;20023;-35
2023/03/01 00:21:05;;;;;;;5.13;4.15;;;;;;;-0.56;79.52;103139.19;5116885;28;20069;-35
2023/03/01 00:23:31;;;;;;;4.85;4.25;;;;;;;-0.68;78.72;103137.31;5116822;27;20125;-35
2023/03/01 00:25:56;;;;;;;;;;;;;;;-0.53;78.85;103145.16;5117849;27;20112;-35
2023/03/01 00:28:22;;;;;;;5.35;4.15;;;;;;;-0.72;79.29;103123.41;5116818;27;19955;-35
2023/03/01 00:30:47;;;;;;;6.07;4.50;;;;;;;-0.60;79.42;103153.63;5117308;28;20035;-39
2023/03/01 00:33:13;;;;;;;4.80;3.67;;;;;;;-0.61;79.41;103154.59;5116971;28;20047;-35
2023/03/01 00:35:38;;;;;;;5.07;4.10;;;;;;;-0.61;79.69;103146.63;5116676;28;20444;-35
2023/03/01 00:38:04;;;;;;;6.63;4.30;;;;;;;-0.67;79.07;103139.91;5116330;28;20062;-35
2023/03/01 00:40:32;;;;;;;4.63;3.92;;;;;;;-0.68;78.82;103153.25;5116567;28;20019;-35
2023/03/01 00:42:57;;;;;;;5.78;3.92;;;;;;;-0.70;79.62;103145.41;5116531;28;20470;-35
2023/03/01 00:45:23;;;;;;;4.83;3.83;;;;;;;-0.75;80.32;103142.19;5116994;28;20020;-35
2023/03/01 00:47:49;;;;;;;6.35;3.80;;;;;;;-0.82;80.32;103131.13;5116699;28;20047;-34
2023/03/01 00:50:15;;;;;;;;;;;;;;;-0.70;79.90;103144.56;5117158;28;20073;-34
2023/03/01 00:52:40;;;;;;;7.32;4.32;;;;;;;-0.82;80.10;103124.97;5115926;28;20349;-35
2023/03/01 00:55:06;;;;;;;4.80;3.73;;;;;;;-0.79;80.15;103133.56;5116874;28;20027;-35
2023/03/01 00:57:33;;;;;;;4.93;3.97;;;;;;;-0.81;79.99;103132.84;5116754;28;20401;-35
2023/03/01 00:59:58;;;;;;;5.30;4.00;;;;;;;-0.88;80.10;103131.53;5116167;28;20463;-35
2023/03/01 01:02:24;;;;;;;7.63;4.32;;;;;;;-0.88;80.02;103120.91;5116504;28;20043;-35
2023/03/01 01:04:49;;;;;;;4.27;3.70;;;;;;;-0.95;81.20;103103.66;5116668;28;20048;-35
2023/03/01 01:07:15;;;;;;;6.93;4.50;;;;;;;-1.01;80.01;103108.53;5115936;28;20027;-35
2023/03/01 01:09:41;;;;;;;4.47;3.60;;;;;;;-0.94;81.22;103113.31;5115738;28;20031;-35
2023/03/01 01:12:07;;;;;;;5.28;4.10;;;;;;;-0.94;81.45;103115.13;5116214;27;20031;-35
2023/03/01 01:14:32;;;;;;;5.78;4.50;;;;;;;-0.98;81.05;103119.78;5116216;28;20406;-35
2023/03/01 01:16:58;;;;;;;4.60;3.73;;;;;;;-1.05;81.77;103102.56;5115560;28;20024;-35
2023/03/01 01:19:24;;;;;;;4.67;3.60;;;;;;;-0.98;82.41;103108.31;5116084;28;20024;-35
2023/03/01 01:21:50;;;;;;;4.38;3.65;;;;;;;-1.06;82.41;103095.56;5115645;28;20026;-35
2023/03/01 01:24:16;;;;;;;4.90;3.53;;;;;;;-1.01;83.32;103100.56;5115069;28;20020;-35
2023/03/01 01:26:42;;;;;;;;;;;;;;;-0.94;81.32;103093.88;5116276;28;20079;-35
2023/03/01 01:29:08;;;;;;;5.68;3.42;;;;;;;-0.99;85.78;103088.88;5116452;27;19903;-35
2023/03/01 01:31:34;;;;;;;6.20;3.33;;;;;;;-1.09;82.97;103085.97;5115844;28;20489;-35
2023/03/01 01:34:02;;;;;;;6.18;3.83;;;;;;;-1.05;84.52;103089.28;5116021;28;20467;-35
2023/03/01 01:36:28;;;;;;;6.07;3.83;;;;;;;-1.33;82.77;103053.06;5116297;28;20355;-35
2023/03/01 01:38:54;;;;;;;;;;;;;;;-1.03;82.61;103084.72;5115764;28;20034;-35
2023/03/01 01:41:21;;;;;;;5.13;3.78;;;;;;;-1.26;82.35;103061.50;5115096;28;19907;-35
2023/03/01 01:43:49;;;;;;;5.50;3.80;;;;;;;-1.21;83.37;103070.84;5115355;28;20100;-35
2023/03/01 01:46:31;;;;;;;4.15;3.33;;;;;;;-1.18;83.04;103075.09;5115852;28;20023;-35
2023/03/01 01:49:15;;;;;;;4.53;3.58;;;;;;;-1.21;82.44;103075.31;5115445;28;20597;-36
2023/03/01 01:51:43;;;;;;;4.03;3.35;;;;;;;-1.24;83.57;103070.19;5115720;28;20078;-35
2023/03/01 01:54:28;;;;;;;4.88;3.55;;;;;;;-1.22;83.79;103065.63;5115088;28;20039;-35
2023/03/01 01:57:00;;;;;;;4.95;3.50;;;;;;;-1.24;83.73;103072.84;5115338;27;20031;-35
2023/03/01 01:59:27;;;;;;;6.68;3.92;;;;;;;-1.30;83.48;103071.44;5115009;28;20020;-35
2023/03/01 02:01:53;;;;;;;8.10;3.90;;;;;;;-1.30;84.52;103058.16;5115871;28;20351;-35
2023/03/01 02:04:18;;;;;;;4.70;3.42;;;;;;;-1.37;84.35;103057.69;5115222;28;20028;-35
2023/03/01 02:06:57;;;;;;;4.27;3.57;;;;;;;-1.35;84.42;103052.31;5114905;28;20511;-35
2023/03/01 02:09:23;;;;;;;5.22;3.65;;;;;;;-1.44;84.21;103056.41;5114476;28;20019;-35
2023/03/01 02:11:50;;;;;;;4.70;3.60;;;;;;;-1.47;83.92;103039.81;5114555;28;20110;-40
2023/03/01 02:14:16;;;;;;;4.70;3.75;;;;;;;-1.52;84.38;103041.91;5114718;28;20019;-35
2023/03/01 02:16:42;;;;;;;4.07;3.60;;;;;;;-1.43;86.30;103052.78;5114435;28;20513;-35
2023/03/01 02:19:13;;;;;;;4.85;3.83;;;;;;;-1.50;85.74;103043.53;5115304;28;20306;-35
2023/03/01 02:21:47;;;;;;;6.70;4.20;;;;;;;-1.43;87.09;103044.81;5114873;28;20023;-35
2023/03/01 02:24:49;;;;;;;5.50;3.83;;;;;;;-1.50;84.65;103051.50;5114618;28;20031;-35
2023/03/01 02:27:16;;;;;;;5.50;3.67;;;;;;;-1.49;84.85;103061.16;5090834;28;20028;-35
2023/03/01 02:29:43;;;;;;;;;;;;;;;-1.48;85.14;103051.38;5114552;28;20020;-35
2023/03/01 02:32:11;;;;;;;6.40;3.70;;;;;;;-1.52;85.59;103045.41;5114199;28;20002;-35
2023/03/01 02:34:37;;;;;;;5.85;3.88;;;;;;;-1.53;84.98;103049.03;5114144;28;20459;-35
2023/03/01 02:37:14;;;;;;;6.00;3.97;;;;;;;-1.58;86.03;103035.19;5113854;28;20496;-35
2023/03/01 02:39:44;;;;;;;6.15;4.05;;;;;;;-1.58;86.13;103051.13;5114388;28;20031;-35
2023/03/01 02:42:14;;;;;;;5.40;4.00;;;;;;;-1.73;85.81;103030.88;5114576;28;20065;-35
2023/03/01 02:44:39;;;;;;;4.93;3.67;;;;;;;-1.62;85.60;103053.09;5114868;28;20027;-35
2023/03/01 02:47:05;;;;;;;5.63;3.93;;;;;;;-1.59;86.31;103047.63;5114244;28;20512;-35
2023/03/01 02:49:34;;;;;;;5.18;3.85;;;;;;;-1.60;85.25;103047.72;5114798;28;20422;-35
2023/03/01 02:52:18;;;;;;;4.82;3.47;;;;;;;-1.62;85.95;103053.09;5113869;28;20482;-35
2023/03/01 02:55:18;;;;;;;5.05;3.78;;;;;;;-1.68;86.77;103042.03;5113914;28;20487;-35
2023/03/01 02:57:45;;;;;;;8.65;3.42;;;;;;;-1.62;86.37;103053.09;5101171;28;20067;-35
2023/03/01 03:00:19;;;;;;;5.63;3.58;;;;;;;-1.68;86.58;103048.19;5114998;28;20024;-35
2023/03/01 03:02:46;;;;;;;5.35;3.40;;;;;;;-1.72;85.92;103048.50;5114892;28;20073;-34
2023/03/01 03:05:15;;;;;;;4.50;3.33;;;;;;;-1.68;86.87;103040.25;5114028;28;20466;-35
2023/03/01 03:07:44;;;;;;;5.03;3.25;;;;;;;-1.71;86.34;103043.06;5114080;28;20050;-35
2023/03/01 03:10:21;;;;;;;5.22;3.20;;;;;;;-1.72;86.43;103035.22;5114597;28;20106;-35
2023/03/01 03:12:51;;;;;;;;;;;;;;;-1.66;85.88;103045.44;5114475;28;20028;-35
2023/03/01 03:15:17;;;;;;;3.53;2.83;;;;;;;-1.72;86.81;103048.50;5113674;28;19908;-35
2023/03/01 03:17:43;;;;;;;6.68;3.45;;;;;;;-1.76;86.84;103050.47;5113602;28;20106;-35
2023/03/01 03:20:11;;;;;;;5.18;3.58;;;;;;;-1.73;87.17;103044.13;5114026;28;20062;-35
2023/03/01 03:22:40;;;;;;;4.40;3.40;;;;;;;-1.70;87.56;103050.13;5114067;28;20076;-35
2023/03/01 03:25:10;;;;;;;5.28;3.45;;;;;;;-1.72;86.44;103049.34;5113619;28;20511;-35
2023/03/01 03:27:37;;;;;;;5.95;3.47;;;;;;;-1.78;86.31;103046.22;5113863;28;20107;-35
2023/03/01 03:30:08;;;;;;;4.45;3.63;;;;;;;-1.76;86.42;103044.31;5114157;28;20024;-35
2023/03/01 03:32:36;;;;;;;5.78;3.72;;;;;;;-1.77;86.73;103046.13;5114079;28;20027;-35
2023/03/01 03:35:09;;;;;;;3.70;3.30;;;;;;;-1.82;86.71;103041.09;5113857;28;20061;-35
2023/03/01 03:40:22;;;;;;;4.28;3.63;;;;;;;-1.87;86.92;103037.91;5113111;28;20035;-35
2023/03/01 03:42:48;;;;;;;4.90;3.70;;;;;;;-1.98;87.48;103029.78;5114177;28;20051;-35
2023/03/01 03:45:13;;;;;;;5.10;3.47;;;;;;;-2.09;88.35;103025.13;5114015;28;20023;-35
2023/03/01 03:47:39;;;;;;;5.32;4.20;;;;;;;-2.04;88.39;103048.72;5114138;28;20020;-35
2023/03/01 03:50:04;;;;;;;6.03;3.80;;;;;;;-2.09;88.74;103046.34;5117882;27;20390;-35
2023/03/01 03:52:30;;;;;;;5.50;4.07;;;;;;;-2.13;89.04;103039.53;5117507;28;20023;-35
2023/03/01 03:54:55;;;;;;;5.47;3.73;;;;;;;-2.06;90.07;103029.38;5118083;28;20098;-35
2023/03/01 03:57:21;;;;;;;6.00;4.07;;;;;;;-2.09;89.60;103035.75;5117507;28;20028;-35
2023/03/01 03:59:46;;;;;;;4.88;3.92;;;;;;;-2.12;88.72;103040.38;5118047;28;20026;-35
2023/03/01 04:02:11;;;;;;;5.27;3.87;;;;;;;-2.18;89.16;103027.50;5117796;28;20039;-35
2023/03/01 04:04:37;;;;;;;5.13;3.90;;;;;;;-2.24;89.33;103009.34;5117347;28;20027;-35
2023/03/01 04:07:02;;;;;;;5.60;4.07;;;;;;;-2.27;89.56;103006.88;5117260;28;20049;-35
2023/03/01 04:09:30;;;;;;;6.07;3.90;;;;;;;-2.23;89.85;103011.88;5117195;28;20023;-35
2023/03/01 04:11:55;;;;;;;5.10;3.95;;;;;;;-2.21;90.89;103014.44;5117106;28;20088;-35
2023/03/01 04:14:20;;;;;;;5.90;4.35;;;;;;;-2.21;89.58;103015.28;5116834;28;20047;-35
2023/03/01 04:16:46;;;;;;;6.43;4.37;;;;;;;-2.30;90.63;102999.94;5117021;28;20084;-35
2023/03/01 04:19:11;;;;;;;5.00;4.20;;;;;;;-2.22;90.56;103010.94;5117830;28;20016;-35
2023/03/01 04:21:37;;;;;;;4.90;4.10;;;;;;;-2.22;90.15;103010.94;5117173;28;20020;-35
2023/03/01 04:24:03;;;;;;;5.67;4.17;;;;;;;-2.30;91.25;103009.69;5117456;28;20444;-35
2023/03/01 04:26:29;;;;;;;6.03;4.55;;;;;;;-2.28;90.67;103000.72;5117453;28;20015;-35
2023/03/01 04:28:54;;;;;;;4.83;3.97;;;;;;;-2.26;91.17;103006.75;5116584;28;20451;-35
2023/03/01 04:31:21;;;;;;;6.40;4.93;;;;;;;-2.38;91.20;102994.28;5116755;28;20299;-35
2023/03/01 04:33:51;;;;;;;4.88;3.88;;;;;;;-2.23;92.33;103003.09;5117018;28;20039;-35
2023/03/01 04:36:17;;;;;;;5.90;3.85;;;;;;;-2.23;91.74;102992.47;5117510;28;20387;-35
2023/03/01 04:38:47;;;;;;;;;;;;;;;-2.16;90.38;103001.75;5117063;28;20058;-35
2023/03/01 04:41:14;;;;;;;6.90;4.30;;;;;;;-2.30;91.23;102997.28;5117082;28;19914;-35
2023/03/01 04:43:40;;;;;;;5.65;4.43;;;;;;;-2.30;91.66;102997.28;5116196;28;20027;-35
2023/03/01 04:46:11;;;;;;;8.27;4.23;;;;;;;-2.34;90.87;103004.59;5116804;27;20027;-35
2023/03/01 04:48:38;;;;;;;5.25;4.18;;;;;;;-2.31;90.84;102992.94;5116162;28;20022;-35
2023/03/01 04:51:05;;;;;;;5.45;4.30;;;;;;;-2.35;91.44;102986.13;5116979;28;20142;-35
2023/03/01 04:53:30;;;;;;;6.07;4.25;;;;;;;-2.35;91.67;102994.06;5116019;28;20019;-35
2023/03/01 04:55:56;;;;;;;5.60;4.37;;;;;;;-2.37;91.36;102986.22;5115509;28;20369;-35
2023/03/01 04:58:26;;;;;;;8.70;4.75;;;;;;;-2.43;91.83;102980.47;5115877;28;20455;-35
2023/03/01 05:00:53;;;;;;;6.05;3.97;;;;;;;-2.39;91.49;102984.59;5115718;28;20030;-35
2023/03/01 05:03:18;;;;;;;;;;;;;;;-2.34;91.48;102980.75;5117320;28;20348;-35
2023/03/01 05:05:45;;;;;;;4.78;3.90;;;;;;;-2.37;92.02;102982.72;5116339;28;19918;-35
2023/03/01 05:08:17;;;;;;;5.13;4.15;;;;;;;-2.33;91.17;102984.25;5115757;28;20367;-35
2023/03/01 05:10:49;;;;;;;4.80;4.00;;;;;;;-2.41;91.26;102974.09;5116436;28;20030;-35
2023/03/01 05:13:20;;;;;;;4.43;3.80;;;;;;;-2.52;92.17;102942.13;5115718;28;20019;-35
2023/03/01 05:15:56;;;;;;;4.82;3.90;;;;;;;-2.30;91.95;102973.44;5115797;28;20084;-35
2023/03/01 05:18:25;;;;;;;5.78;4.18;;;;;;;-2.28;93.39;102976.00;5115501;28;20030;-35
2023/03/01 05:20:51;;;;;;;5.95;4.47;;;;;;;-2.27;92.17;102977.72;5116188;28;20055;-35
2023/03/01 05:23:18;;;;;;;5.45;3.88;;;;;;;-2.31;92.06;102968.25;5115594;28;20020;-35
2023/03/01 05:25:44;;;;;;;5.18;3.90;;;;;;;-2.29;92.14;102968.97;5116214;28;20031;-35
2023/03/01 05:28:12;;;;;;;5.43;3.97;;;;;;;-2.33;92.19;102953.28;5115335;28;20084;-35
2023/03/01 05:30:41;;;;;;;6.03;3.97;;;;;;;-2.22;91.73;102963.22;5115669;28;20047;-35
2023/03/01 05:33:12;;;;;;;6.63;4.10;;;;;;;-2.18;92.13;102956.78;5115203;28;20062;-35
2023/03/01 05:35:42;;;;;;;4.50;3.97;;;;;;;-2.28;92.49;102950.34;5115227;28;20102;-35
2023/03/01 05:38:09;;;;;;;5.15;4.05;;;;;;;-2.32;91.91;102951.50;5115410;28;20027;-35
2023/03/01 05:40:35;;;;;;;6.03;4.07;;;;;;;-2.38;91.99;102942.13;5115989;28;20057;-35
2023/03/01 05:43:00;;;;;;;5.80;4.47;;;;;;;-2.37;93.30;102930.56;5115297;28;20124;-39
2023/03/01 05:45:27;;;;;;;8.10;4.18;;;;;;;-2.22;94.32;102941.16;5115058;28;20024;-35
2023/03/01 05:47:54;;;;;;;5.53;4.40;;;;;;;-2.39;92.84;102942.19;5115259;28;20026;-35
2023/03/01 05:50:28;;;;;;;5.32;4.10;;;;;;;-2.34;93.56;102941.00;5115536;28;20348;-35
2023/03/01 05:53:00;;;;;;;6.43;4.15;;;;;;;-2.44;93.28;102926.63;5115520;28;20050;-35
2023/03/01 05:55:27;;;;;;;6.63;4.30;;;;;;;-2.34;94.30;102935.69;5115413;28;20027;-35
2023/03/01 05:57:53;;;;;;;5.30;4.55;;;;;;;-2.44;93.43;102939.88;5115417;28;20020;-35
2023/03/01 06:00:21;;;;;;;9.43;3.93;;;;;;;-2.55;93.82;102929.06;5114716;28;20478;-34
2023/03/01 06:02:47;;;;;;;8.27;4.53;;;;;;;-2.52;93.95;102942.13;5115369;28;20039;-35
2023/03/01 06:05:13;;;;;;;6.30;3.85;;;;;;;-2.45;94.44;102950.53;5115281;28;20025;-34
2023/03/01 06:07:39;;;;;;;7.35;4.82;;;;;;;-2.58;93.37;102937.22;5114909;28;20402;-35
2023/03/01 06:10:05;;;;;;;5.25;4.30;;;;;;;-2.56;94.96;102935.31;5114400;28;20027;-35
2023/03/01 06:12:32;;;;;;;5.72;4.28;;;;;;;-2.66;93.19;102942.97;5114525;28;20090;-34
2023/03/01 06:14:58;;;;;;;5.93;4.38;;;;;;;-2.52;94.42;102951.88;5115013;28;20023;-35
2023/03/01 06:17:23;;;;;;;4.83;3.93;;;;;;;-2.83;94.40;102907.84;5114368;28;20042;-34
2023/03/01 06:19:48;;;;;;;7.47;4.17;;;;;;;-2.61;94.20;102938.25;5115075;28;20254;-34
2023/03/01 06:22:14;;;;;;;4.50;3.63;;;;;;;-2.58;94.83;102939.88;5114555;28;20036;-35
2023/03/01 06:24:39;;;;;;;5.27;3.67;;;;;;;-2.58;94.74;102931.91;5114645;28;20032;-34
2023/03/01 06:27:04;;;;;;;7.80;5.77;;;;;;;-2.61;93.79;102938.25;5115324;28;20024;-35
2023/03/01 06:29:30;;;;;;;6.53;4.73;;;;;;;-2.56;94.98;102929.16;5115218;28;20413;-35
2023/03/01 06:31:55;;;;;;;9.00;4.90;;;;;;;-2.64;94.96;102929.63;5114464;28;20032;-34
2023/03/01 06:34:21;;;;;;;6.53;4.43;;;;;;;-2.56;94.64;102945.91;5114758;28;20427;-35
2023/03/01 06:36:47;;;;;;;5.55;4.63;;;;;;;-2.61;95.01;102937.41;5114400;28;20024;-35
2023/03/01 06:39:13;;;;;;;10.30;4.78;;;;;;;-2.55;94.68;102938.81;5114690;28;20051;-34
2023/03/01 06:41:38;;;;;;;6.07;4.20;;;;;;;-2.48;94.48;102940.16;5114289;28;20031;-35
2023/03/01 06:44:03;;;;;;;7.40;4.43;;;;;;;-2.48;94.21;102950.75;5114917;28;20455;-35
2023/03/01 06:46:29;;;;;;;6.13;4.30;;;;;;;-2.47;94.48;102937.41;5114926;27;20363;-35
2023/03/01 06:48:54;;;;;;;7.50;4.77;;;;;;;-2.45;94.41;102948.75;5114499;28;20027;-35
2023/03/01 06:51:22;;;;;;;6.77;4.70;;;;;;;-2.46;94.67;102939.09;5115107;28;20054;-35
2023/03/01 06:53:48;;;;;;;8.93;4.60;;;;;;;-2.31;95.91;102939.09;5114126;28;20051;-35
2023/03/01 06:56:13;;;;;;;7.47;4.83;;;;;;;-2.38;96.03;102934.19;5114509;28;20108;-35
2023/03/01 06:58:38;;;;;;;8.57;4.50;;;;;;;-2.11;96.64;102949.28;5113872;28;20024;-35
2023/03/01 07:01:08;;;;;;;6.73;4.53;;;;;;;-2.17;96.05;102931.13;5113841;28;20015;-35
2023/03/01 07:03:33;;;;;;;5.70;4.47;;;;;;;-2.14;95.65;102938.91;5114583;28;20451;-35
2023/03/01 07:05:59;;;;;;;6.15;4.18;;;;;;;-2.08;95.46;102944.66;5114702;28;20032;-35
2023/03/01 07:08:25;;;;;;;5.50;4.20;;;;;;;-2.16;94.07;102936.31;5114022;28;20022;-35
2023/03/01 07:11:01;;;;;;;5.38;4.32;;;;;;;-1.99;95.98;102937.06;5113811;28;20379;-35
2023/03/01 07:13:27;;;;;;;6.72;4.88;;;;;;;-2.02;94.48;102927.50;5113949;28;20106;-35
2023/03/01 07:15:52;;;;;;;6.85;4.53;;;;;;;-1.91;94.12;102943.56;5113709;28;20055;-35
2023/03/01 07:18:18;;;;;;;7.37;4.97;;;;;;;-1.83;94.54;102941.28;5112651;28;20035;-35
2023/03/01 07:20:43;;;;;;;5.93;4.30;;;;;;;-1.83;93.60;102935.97;5114243;28;20027;-35
2023/03/01 07:23:08;;;;;;;8.03;4.70;;;;;;;-1.80;93.91;102926.13;5115055;28;20095;-36
2023/03/01 07:25:34;;;;;;;5.73;4.40;;;;;;;-1.85;93.39;102905.22;5118174;28;20359;-35
2023/03/01 07:27:59;;;;;;;6.47;4.40;;;;;;;-1.69;93.41;102921.81;5116763;28;20409;-35
2023/03/01 07:30:28;;;;;;;6.20;4.60;;;;;;;-1.42;94.75;102943.03;5118205;28;20024;-35
2023/03/01 07:32:55;;;;;;;6.78;4.40;;;;;;;-1.31;95.57;102945.84;5117897;28;20123;-35
2023/03/01 07:35:21;;;;;;;6.97;4.60;;;;;;;-1.38;94.30;102920.63;5117860;28;20448;-35
2023/03/01 07:37:46;;;;;;;7.43;4.65;;;;;;;-1.20;93.72;102945.13;5117779;28;20024;-35
2023/03/01 07:40:12;;;;;;;6.03;4.90;;;;;;;-1.10;92.21;102946.19;5117872;28;20523;-35
2023/03/01 07:42:38;;;;;;;6.93;5.00;;;;;;;-1.03;90.87;102954.59;5118243;28;20022;-35
2023/03/01 07:45:04;;;;;;;9.98;5.32;;;;;;;-1.01;90.44;102954.50;5118555;28;20031;-35
2023/03/01 07:47:30;;;;;;;6.35;4.60;;;;;;;-0.93;92.42;102952.16;5117568;28;20366;-35
2023/03/01 07:49:55;;;;;;;7.37;5.23;;;;;;;-0.89;90.96;102948.34;5118033;28;20024;-35
2023/03/01 07:52:20;;;;;;;6.10;4.93;;;;;;;-0.81;90.54;102957.50;5117582;28;20028;-35
2023/03/01 07:54:46;;;;;;;6.13;5.00;;;;;;;-0.67;92.77;102955.72;5117778;28;20027;-35
2023/03/01 07:57:11;;;;;;;6.07;4.97;;;;;;;-0.64;89.55;102953.66;5117734;28;20016;-35
2023/03/01 07:59:37;;;;;;;8.05;5.65;;;;;;;-0.62;88.74;102951.75;5117721;28;20367;-35
2023/03/01 08:02:02;;;;;;;6.60;4.70;;;;;;;-0.53;88.41;102955.59;5117437;28;20039;-35
2023/03/01 08:04:27;;;;;;;6.60;5.30;;;;;;;-0.47;88.64;102938.38;5117319;28;20039;-35
2023/03/01 08:06:54;;;;;;;8.13;5.23;;;;;;;-0.43;87.29;102951.34;5116978;28;20046;-35
2023/03/01 08:09:20;;;;;;;7.85;5.70;;;;;;;-0.41;88.00;102945.91;5117304;28;20136;-35
2023/03/01 08:11:45;;;;;;;7.68;5.60;;;;;;;-0.37;87.80;102945.59;5116861;28;20118;-35
2023/03/01 08:14:11;;;;;;;10.43;5.20;;;;;;;-0.20;89.05;102959.47;5116860;28;20019;-35
2023/03/01 08:16:36;;;;;;;7.93;5.20;;;;;;;-0.05;90.46;102959.25;5117058;28;20035;-34
2023/03/01 08:19:06;;;;;;;6.30;4.90;;;;;;;-0.02;88.39;102948.38;5118028;28;20022;-34
2023/03/01 08:21:34;;;;;;;7.47;5.20;;;;;;;0.05;86.37;102956.78;5116885;28;20367;-35
2023/03/01 08:24:00;;;;;;;5.93;4.90;;;;;;;0.10;86.75;102944.00;5116957;28;20030;-35
2023/03/01 08:26:25;;;;;;;6.95;5.00;;;;;;;0.24;85.61;102954.50;5116918;28;20023;-35
2023/03/01 08:28:51;;;;;;;6.67;4.70;;;;;;;0.28;84.97;102949.78;5116895;28;20124;-35
2023/03/01 08:31:23;;;;;;;6.07;4.33;;;;;;;0.29;84.62;102932.00;5117392;28;20106;-35
2023/03/01 08:33:54;;;;;;;5.55;4.30;;;;;;;0.48;84.54;102946.50;5116591;28;20020;-35
2023/03/01 08:36:21;;;;;;;5.82;4.47;;;;;;;0.52;83.16;102929.34;5116728;28;20027;-35
2023/03/01 08:38:47;;;;;;;5.93;4.53;;;;;;;0.57;82.88;102936.97;5116882;28;20024;-35
2023/03/01 08:41:13;;;;;;;6.18;4.47;;;;;;;0.66;83.58;102930.13;5116887;28;20031;-35
2023/03/01 08:43:38;;;;;;;6.28;4.78;;;;;;;0.75;82.01;102940.94;5116257;28;20066;-35
2023/03/01 08:46:04;;;;;;;7.27;5.20;;;;;;;0.84;81.86;102934.06;5116835;28;20051;-35
2023/03/01 08:48:29;;;;;;;6.70;4.33;;;;;;;0.96;80.89;102932.28;5116799;28;20020;-35
2023/03/01 08:50:55;;;;;;;7.87;4.10;;;;;;;1.06;81.04;102922.63;5116478;28;20395;-34
2023/03/01 08:53:20;;;;;;;6.80;5.03;;;;;;;1.06;80.31;102906.63;5117153;28;20019;-34
2023/03/01 08:55:46;;;;;;;5.83;5.03;;;;;;;1.21;80.10;102916.09;5116639;28;20379;-35
2023/03/01 08:58:11;;;;;;;5.13;4.13;;;;;;;1.24;80.72;102907.03;5116261;28;20030;-35
2023/03/01 09:00:36;;;;;;;6.60;4.70;;;;;;;1.43;79.75;102919.78;5115985;28;20041;-35
2023/03/01 09:03:02;;;;;;;5.43;4.77;;;;;;;1.48;78.79;102912.25;5116384;28;20053;-35
2023/03/01 09:05:27;;;;;;;8.13;4.47;;;;;;;1.62;78.77;102914.69;5117035;28;20019;-35
2023/03/01 09:07:53;;;;;;;7.60;4.70;;;;;;;1.75;78.22;102915.38;5116157;28;20035;-35
2023/03/01 09:10:18;;;;;;;6.13;4.83;;;;;;;1.79;76.05;102926.66;5116085;28;20019;-35
2023/03/01 09:12:43;;;;;;;6.97;4.77;;;;;;;1.87;76.85;102905.56;5116095;27;20024;-35
2023/03/01 09:15:09;;;;;;;7.20;4.90;;;;;;;1.98;76.82;102907.34;5116001;28;20027;-34
2023/03/01 09:17:35;;;;;;;5.53;4.68;;;;;;;2.06;74.55;102899.59;5114717;28;20024;-34
2023/03/01 09:20:00;;;;;;;5.43;4.07;;;;;;;2.16;74.96;102905.88;5115707;28;20027;-34
2023/03/01 09:22:25;;;;;;;5.17;4.57;;;;;;;2.20;74.00;102904.66;5116011;27;20016;-34
2023/03/01 09:24:51;;;;;;;6.40;4.70;;;;;;;2.28;73.77;102898.66;5115577;28;20424;-35
2023/03/01 09:27:18;;;;;;;5.70;4.00;;;;;;;2.39;73.88;102901.31;5115742;28;20413;-35
2023/03/01 09:29:44;;;;;;;5.50;4.10;;;;;;;2.45;71.34;102895.47;5115975;28;20019;-35
2023/03/01 09:32:10;;;;;;;6.18;4.05;;;;;;;2.62;72.15;102882.50;5115579;28;20030;-35
2023/03/01 09:35:00;;;;;;;7.03;4.00;;;;;;;2.64;70.26;102861.88;5116181;28;20031;-35
2023/03/01 09:37:20;;;;;;;5.88;3.78;;;;;;;2.75;70.25;102869.81;5115124;28;20043;-35
2023/03/01 09:39:46;;;;;;;5.47;3.83;;;;;;;2.75;68.93;102857.31;5115864;28;20030;-35
2023/03/01 09:42:12;;;;;;;6.97;4.43;;;;;;;2.92;68.71;102871.88;5115419;28;20444;-35
2023/03/01 09:44:43;;;;;;;;;;;;;;;2.99;68.05;102867.72;5116068;28;20020;-35
2023/03/01 09:47:19;;;;;;;6.32;3.97;;;;;;;2.91;67.20;102858.66;5114371;28;20409;-35
2023/03/01 09:49:54;;;;;;;5.85;4.05;;;;;;;2.95;66.70;102874.31;5115852;28;20348;-35
2023/03/01 09:53:00;;;;;;;5.85;4.80;;;;;;;3.03;67.90;102866.47;5115246;28;20103;-35
2023/03/01 09:55:32;;;;;;;7.43;4.47;;;;;;;2.92;66.97;102833.63;5114968;28;20035;-36
2023/03/01 09:58:26;;;;;;;4.35;3.63;;;;;;;3.24;66.45;102858.41;5113989;28;20065;-35
2023/03/01 10:00:51;;;;;;;6.85;3.83;;;;;;;3.33;65.55;102862.13;5115029;28;20035;-35
2023/03/01 10:03:17;;;;;;;5.33;4.00;;;;;;;3.34;65.14;102859.31;5115128;28;20040;-35
2023/03/01 10:06:01;;;;;;;5.30;3.60;;;;;;;3.47;65.46;102853.75;5115612;28;20030;-35
2023/03/01 10:08:30;;;;;;;4.70;3.72;;;;;;;3.48;63.89;102844.72;5114856;28;20020;-35
2023/03/01 10:10:57;;;;;;;5.55;3.72;;;;;;;3.57;63.58;102843.91;5115209;28;20034;-35
2023/03/01 10:13:34;;;;;;;5.50;3.50;;;;;;;3.60;62.46;102827.56;5114517;28;20364;-35
2023/03/01 10:16:10;;;;;;;4.40;3.45;;;;;;;3.76;62.77;102832.41;5114635;28;20031;-35
2023/03/01 10:18:37;;;;;;;4.60;3.60;;;;;;;3.75;61.48;102825.34;5114781;28;20026;-35
2023/03/01 10:21:13;;;;;;;5.10;3.58;;;;;;;3.86;62.90;102830.59;5115174;28;20020;-36
2023/03/01 10:23:39;;;;;;;4.72;3.78;;;;;;;3.86;60.65;102827.94;5114993;28;20060;-36
2023/03/01 10:26:29;;;;;;;6.83;3.60;;;;;;;3.95;61.92;102822.72;5114945;28;20059;-36
2023/03/01 10:29:07;;;;;;;6.53;3.90;;;;;;;4.03;60.98;102823.72;5114596;28;20020;-35
2023/03/01 10:31:42;;;;;;;4.28;3.13;;;;;;;4.07;60.20;102818.94;5114518;28;20035;-35
2023/03/01 10:34:11;;;;;;;7.43;3.92;;;;;;;4.10;60.88;102816.81;5114767;28;20042;-35
2023/03/01 10:36:39;;;;;;;5.63;3.67;;;;;;;4.07;59.13;102795.69;5115254;28;20055;-36
2023/03/01 10:39:12;;;;;;;5.60;3.63;;;;;;;4.17;58.61;102808.22;5114407;28;20024;-36
2023/03/01 10:42:07;;;;;;;5.70;3.50;;;;;;;4.31;60.13;102811.31;5114884;28;20024;-36
2023/03/01 10:44:47;;;;;;;4.30;3.70;;;;;;;4.41;59.68;102805.97;5113834;28;20043;-36
2023/03/01 10:47:27;;;;;;;4.53;3.60;;;;;;;4.43;59.36;102811.16;5114059;28;20038;-36
2023/03/01 10:49:55;;;;;;;6.32;4.03;;;;;;;4.36;58.60;102811.75;5114377;28;20019;-36
2023/03/01 10:52:25;;;;;;;6.05;4.00;;;;;;;4.36;60.73;102806.38;5114282;28;20065;-36
2023/03/01 10:55:01;;;;;;;4.95;3.75;;;;;;;4.38;59.34;102799.03;5114803;28;20022;-36
2023/03/01 10:57:37;;;;;;;7.13;4.17;;;;;;;4.49;60.46;102803.41;5113999;28;20024;-36
2023/03/01 11:00:28;;;;;;;5.75;4.35;;;;;;;4.57;58.76;102810.72;5113868;28;20475;-36
2023/03/01 11:03:12;;;;;;;5.40;3.90;;;;;;;4.47;59.55;102800.03;5110225;28;20391;-36
2023/03/01 11:06:10;;;;;;;5.45;4.00;;;;;;;4.54;58.99;102794.91;5114941;28;20108;-36
2023/03/01 11:08:43;;;;;;;5.38;4.15;;;;;;;4.60;58.33;102799.72;5103506;28;20032;-36
2023/03/01 11:11:21;;;;;;;6.90;4.00;;;;;;;4.46;57.74;102792.13;5114887;28;20011;-36
2023/03/01 11:14:06;;;;;;;6.57;4.50;;;;;;;4.58;58.76;102793.66;5114645;28;20058;-36
2023/03/01 11:16:34;;;;;;;4.72;3.85;;;;;;;4.75;59.10;102784.88;5114038;28;20020;-36
2023/03/01 11:19:10;;;;;;;3.97;3.33;;;;;;;4.88;59.13;102793.47;5114014;28;20364;-36
2023/03/01 11:21:44;;;;;;;5.60;3.95;;;;;;;4.86;58.17;102795.41;5114240;28;20020;-36
2023/03/01 11:24:13;;;;;;;4.85;3.92;;;;;;;4.96;56.47;102799.91;5114019;28;20053;-35
2023/03/01 11:26:42;;;;;;;5.57;4.03;;;;;;;4.93;55.82;102797.50;5114833;28;20102;-36
2023/03/01 11:29:21;;;;;;;6.00;4.43;;;;;;;4.90;56.83;102786.09;5113551;28;20034;-36
2023/03/01 11:31:48;;;;;;;4.93;3.70;;;;;;;5.09;57.58;102793.22;5114214;28;20027;-36
2023/03/01 11:34:20;;;;;;;4.93;4.13;;;;;;;5.07;57.33;102780.94;5113578;28;20098;-36
2023/03/01 11:36:56;;;;;;;7.25;4.93;;;;;;;5.20;57.84;102770.72;5114085;28;20027;-36
2023/03/01 11:39:57;;;;;;;5.65;4.40;;;;;;;5.16;56.75;102774.69;5114409;28;20083;-35